createdAt,value
2017-11-22T00:04:58.254Z,8.63
2017-11-22T00:07:25.862Z,8.50
2017-11-22T00:09:53.378Z,7.20
2017-11-22T00:12:20.892Z,6.70
2017-11-22T00:14:48.466Z,7.33
2017-11-22T00:17:16.751Z,7.03
2017-11-22T00:19:45.060Z,7.07
2017-11-22T00:22:12.573Z,7.07
2017-11-22T00:24:40.126Z,6.70
2017-11-22T00:27:07.627Z,6.53
2017-11-22T00:29:35.183Z,6.43
2017-11-22T00:32:02.823Z,7.23
2017-11-22T00:34:30.383Z,6.23
2017-11-22T00:36:57.876Z,5.80
2017-11-22T00:39:25.383Z,5.73
2017-11-22T00:41:52.950Z,6.20
2017-11-22T00:44:20.450Z,6.77
2017-11-22T00:46:47.979Z,5.93
2017-11-22T00:49:15.493Z,6.40
2017-11-22T00:51:43.909Z,6.03
2017-11-22T00:54:11.436Z,5.97
2017-11-22T00:56:38.978Z,6.10
2017-11-22T00:59:06.523Z,5.77
2017-11-22T01:01:34.050Z,6.63
2017-11-22T01:04:01.553Z,5.90
2017-11-22T01:06:29.900Z,6.30
2017-11-22T01:08:57.427Z,5.57
2017-11-22T01:11:24.948Z,5.80
2017-11-22T01:13:52.495Z,5.30
2017-11-22T01:16:20.069Z,5.37
2017-11-22T01:18:47.612Z,4.93
2017-11-22T01:21:15.116Z,5.10
2017-11-22T01:23:42.667Z,5.57
2017-11-22T01:26:10.178Z,5.47
2017-11-22T01:28:37.750Z,5.57
2017-11-22T01:31:05.259Z,5.67
2017-11-22T01:33:33.521Z,5.57
2017-11-22T01:36:01.108Z,6.30
2017-11-22T01:38:28.616Z,6.37
2017-11-22T01:40:56.149Z,6.07
2017-11-22T01:43:23.652Z,6.07
2017-11-22T01:45:51.202Z,6.27
2017-11-22T01:48:18.730Z,5.90
2017-11-22T01:50:46.260Z,5.83
2017-11-22T01:53:14.599Z,6.10
2017-11-22T01:55:42.152Z,5.23
2017-11-22T01:58:09.650Z,5.30
2017-11-22T02:00:48.794Z,6.37
2017-11-22T02:03:18.095Z,5.10
2017-11-22T02:05:45.586Z,5.70
2017-11-22T02:08:13.147Z,6.53
2017-11-22T02:10:40.641Z,5.70
2017-11-22T02:13:08.275Z,5.53
2017-11-22T02:15:35.774Z,5.23
2017-11-22T02:18:03.314Z,6.00
2017-11-22T02:20:30.847Z,5.60
2017-11-22T02:23:16.960Z,6.10
2017-11-22T02:25:44.518Z,6.50
2017-11-22T02:28:12.027Z,6.40
2017-11-22T02:30:39.553Z,5.27
2017-11-22T02:33:07.033Z,6.10
2017-11-22T02:35:34.577Z,5.47
2017-11-22T02:38:02.067Z,5.70
2017-11-22T02:40:29.613Z,5.57
2017-11-22T02:42:57.094Z,5.23
2017-11-22T02:45:24.596Z,5.83
2017-11-22T02:47:52.149Z,5.73
2017-11-22T02:50:19.652Z,5.30
2017-11-22T02:52:47.248Z,5.80
2017-11-22T02:55:14.777Z,6.63
2017-11-22T02:57:42.298Z,5.77
2017-11-22T03:00:09.785Z,5.80
2017-11-22T03:02:37.375Z,6.30
2017-11-22T03:05:04.926Z,5.40
2017-11-22T03:07:32.414Z,6.10
2017-11-22T03:09:59.941Z,6.13
2017-11-22T03:12:27.426Z,6.23
2017-11-22T03:14:54.994Z,5.63
2017-11-22T03:17:22.490Z,6.37
2017-11-22T03:19:50.013Z,6.27
2017-11-22T03:22:18.267Z,6.70
2017-11-22T03:24:45.804Z,6.30
2017-11-22T03:27:13.313Z,6.60
2017-11-22T03:29:40.925Z,6.70
2017-11-22T03:32:08.444Z,6.67
2017-11-22T03:34:35.939Z,7.80
2017-11-22T03:37:03.472Z,6.87
2017-11-22T03:39:31.000Z,7.43
2017-11-22T03:41:58.531Z,7.43
2017-11-22T03:44:26.025Z,6.73
2017-11-22T03:46:53.569Z,7.10
2017-11-22T03:49:21.058Z,7.03
2017-11-22T03:51:54.246Z,6.70
2017-11-22T03:54:21.741Z,7.10
2017-11-22T03:56:49.238Z,7.07
2017-11-22T03:59:17.543Z,7.33
2017-11-22T04:01:45.049Z,7.60
2017-11-22T04:04:12.590Z,6.90
2017-11-22T04:06:40.089Z,8.00
2017-11-22T04:09:07.615Z,7.60
2017-11-22T04:11:35.105Z,7.27
2017-11-22T04:14:02.653Z,6.97
2017-11-22T04:16:30.922Z,7.70
2017-11-22T04:19:04.021Z,7.00
2017-11-22T04:21:31.549Z,7.00
2017-11-22T04:23:59.045Z,6.67
2017-11-22T04:26:26.588Z,6.20
2017-11-22T04:28:54.084Z,6.27
2017-11-22T04:31:21.611Z,6.40
2017-11-22T04:33:49.105Z,7.40
2017-11-22T04:36:16.646Z,6.77
2017-11-22T04:38:44.144Z,7.23
2017-11-22T04:41:11.661Z,7.10
2017-11-22T04:43:39.162Z,7.23
2017-11-22T04:46:07.472Z,7.40
2017-11-22T04:48:34.977Z,6.80
2017-11-22T04:51:02.482Z,7.60
2017-11-22T04:53:30.030Z,7.90
2017-11-22T04:55:57.529Z,6.67
2017-11-22T04:58:25.062Z,6.77
2017-11-22T05:00:52.546Z,7.50
2017-11-22T05:03:20.074Z,7.40
2017-11-22T05:05:47.565Z,6.97
2017-11-22T05:08:15.090Z,7.27
2017-11-22T05:10:43.387Z,6.90
2017-11-22T05:13:11.698Z,7.37
2017-11-22T05:15:39.185Z,7.20
2017-11-22T05:18:06.712Z,7.07
2017-11-22T05:20:35.024Z,7.10
2017-11-22T05:23:02.518Z,6.43
2017-11-22T05:25:30.057Z,6.80
2017-11-22T05:27:58.325Z,7.20
2017-11-22T05:30:26.594Z,7.27
2017-11-22T05:32:54.135Z,6.37
2017-11-22T05:35:21.636Z,7.40
2017-11-22T05:37:49.175Z,6.80
2017-11-22T05:40:16.669Z,6.40
2017-11-22T05:42:44.197Z,6.93
2017-11-22T05:45:11.694Z,6.70
2017-11-22T05:47:39.239Z,5.97
2017-11-22T05:50:06.741Z,5.80
2017-11-22T05:52:34.282Z,8.17
2017-11-22T05:55:01.807Z,7.00
2017-11-22T05:57:29.306Z,6.40
2017-11-22T05:59:56.905Z,7.63
2017-11-22T06:02:24.497Z,8.03
2017-11-22T06:04:52.038Z,7.30
2017-11-22T06:07:20.327Z,7.33
2017-11-22T06:09:47.857Z,6.87
2017-11-22T06:12:15.367Z,6.70
2017-11-22T06:14:43.681Z,7.07
2017-11-22T06:17:11.214Z,8.37
2017-11-22T06:19:39.481Z,8.47
2017-11-22T06:22:07.016Z,7.90
2017-11-22T06:24:34.528Z,8.30
2017-11-22T06:27:02.078Z,7.20
2017-11-22T06:29:29.582Z,7.63
2017-11-22T06:31:57.085Z,7.97
2017-11-22T06:34:25.445Z,7.00
2017-11-22T06:36:52.967Z,6.77
2017-11-22T06:39:24.416Z,7.80
2017-11-22T06:41:51.917Z,7.97
2017-11-22T06:44:19.451Z,7.37
2017-11-22T06:46:47.714Z,7.50
2017-11-22T06:49:15.273Z,7.20
2017-11-22T06:51:42.773Z,7.27
2017-11-22T06:54:10.273Z,8.00
2017-11-22T06:56:37.800Z,7.33
2017-11-22T06:59:05.316Z,8.40
2017-11-22T07:01:32.889Z,8.47
2017-11-22T07:04:00.377Z,8.43
2017-11-22T07:06:27.916Z,8.80
2017-11-22T07:08:56.165Z,8.50
2017-11-22T07:11:23.662Z,8.00
2017-11-22T07:13:51.957Z,9.83
2017-11-22T07:16:25.778Z,9.27
2017-11-22T07:18:53.323Z,9.17
2017-11-22T07:21:20.809Z,9.40
2017-11-22T07:23:48.345Z,9.47
2017-11-22T07:26:15.842Z,9.20
2017-11-22T07:28:43.386Z,9.30
2017-11-22T07:31:10.868Z,8.50
2017-11-22T07:33:38.402Z,9.27
2017-11-22T07:36:11.545Z,9.33
2017-11-22T07:38:39.102Z,9.73
2017-11-22T07:41:06.589Z,8.70
2017-11-22T07:43:34.104Z,9.47
2017-11-22T07:46:01.671Z,10.30
2017-11-22T07:48:29.178Z,9.90
2017-11-22T07:50:58.674Z,10.17
2017-11-22T07:53:26.219Z,10.60
2017-11-22T07:55:54.306Z,9.50
2017-11-22T07:58:21.830Z,9.47
2017-11-22T08:00:49.436Z,10.50
2017-11-22T08:03:21.807Z,10.50
2017-11-22T08:05:49.341Z,11.07
2017-11-22T08:08:16.925Z,10.00
2017-11-22T08:10:44.419Z,10.07
2017-11-22T08:13:11.949Z,9.50
2017-11-22T08:15:39.454Z,9.80
2017-11-22T08:18:07.000Z,10.37
2017-11-22T08:20:34.494Z,10.33
2017-11-22T08:23:01.985Z,10.57
2017-11-22T08:25:29.542Z,8.83
2017-11-22T08:27:57.033Z,9.63
2017-11-22T08:30:24.603Z,7.80
2017-11-22T08:32:52.105Z,9.10
2017-11-22T08:35:19.684Z,8.90
2017-11-22T08:37:47.180Z,10.17
2017-11-22T08:40:14.728Z,10.00
2017-11-22T08:42:42.990Z,9.60
2017-11-22T08:45:10.500Z,10.03
2017-11-22T08:47:38.039Z,8.87
2017-11-22T08:50:05.545Z,9.30
2017-11-22T08:52:33.075Z,7.97
2017-11-22T08:55:06.133Z,8.10
2017-11-22T08:57:39.341Z,9.20
2017-11-22T09:00:12.382Z,8.97
2017-11-22T09:02:54.510Z,8.80
2017-11-22T09:05:22.057Z,8.73
2017-11-22T09:07:49.711Z,8.63
2017-11-22T09:10:17.208Z,9.40
2017-11-22T09:12:59.190Z,8.57
2017-11-22T09:15:26.678Z,9.00
2017-11-22T09:17:56.109Z,8.77
2017-11-22T09:20:23.664Z,8.53
2017-11-22T09:22:51.218Z,8.70
2017-11-22T09:25:21.696Z,8.30
2017-11-22T09:27:54.790Z,7.70
2017-11-22T09:30:22.329Z,8.27
2017-11-22T09:32:51.798Z,7.20
2017-11-22T09:35:19.336Z,7.60
2017-11-22T09:37:46.833Z,8.00
2017-11-22T09:40:14.376Z,7.33
2017-11-22T09:42:41.873Z,6.83
2017-11-22T09:45:09.395Z,7.67
2017-11-22T09:47:36.953Z,7.60
2017-11-22T09:50:04.459Z,7.10
2017-11-22T09:52:31.990Z,7.23
2017-11-22T09:55:00.267Z,7.83
2017-11-22T09:57:27.791Z,7.77
2017-11-22T09:59:55.304Z,7.07
2017-11-22T10:02:22.846Z,7.33
2017-11-22T10:04:50.345Z,6.63
2017-11-22T10:07:17.883Z,7.87
2017-11-22T10:09:45.378Z,7.07
2017-11-22T10:12:12.869Z,6.90
2017-11-22T10:14:40.400Z,6.63
2017-11-22T10:17:12.689Z,6.53
2017-11-22T10:19:44.141Z,6.17
2017-11-22T10:22:11.637Z,6.80
2017-11-22T10:24:43.955Z,7.10
2017-11-22T10:27:17.773Z,7.40
2017-11-22T10:29:46.129Z,7.50
2017-11-22T10:32:19.162Z,6.83
2017-11-22T10:34:46.693Z,7.77
2017-11-22T10:37:14.221Z,7.20
2017-11-22T10:39:41.711Z,5.70
2017-11-22T10:42:09.253Z,6.07
2017-11-22T10:44:37.511Z,6.30
2017-11-22T10:47:05.063Z,5.73
2017-11-22T10:49:32.569Z,5.30
2017-11-22T10:52:00.112Z,5.90
2017-11-22T10:54:27.596Z,5.53
2017-11-22T10:56:55.132Z,6.60
2017-11-22T10:59:22.659Z,6.10
2017-11-22T11:01:50.149Z,5.97
2017-11-22T11:04:17.683Z,6.07
2017-11-22T11:06:45.173Z,5.83
2017-11-22T11:09:13.472Z,5.43
2017-11-22T11:11:41.749Z,6.10
2017-11-22T11:14:09.319Z,7.13
2017-11-22T11:16:36.796Z,5.87
2017-11-22T11:19:04.394Z,6.10
2017-11-22T11:21:31.889Z,6.30
2017-11-22T11:23:59.389Z,5.63
2017-11-22T11:26:26.909Z,6.20
2017-11-22T11:28:54.417Z,6.20
2017-11-22T11:31:21.957Z,5.97
2017-11-22T11:33:49.458Z,5.57
2017-11-22T11:36:28.773Z,6.10
2017-11-22T11:38:56.265Z,6.40
2017-11-22T11:41:23.799Z,5.07
2017-11-22T11:43:52.049Z,5.77
2017-11-22T11:46:19.588Z,6.03
2017-11-22T11:48:47.082Z,5.13
2017-11-22T11:51:14.586Z,5.50
2017-11-22T11:53:42.114Z,5.77
2017-11-22T11:56:09.610Z,5.30
2017-11-22T11:58:37.134Z,6.53
2017-11-22T12:01:04.625Z,5.80
2017-11-22T12:03:32.153Z,5.10
2017-11-22T12:05:59.647Z,5.30
2017-11-22T12:08:27.170Z,5.60
2017-11-22T12:10:54.666Z,5.93
2017-11-22T12:13:22.962Z,4.43
2017-11-22T12:15:51.219Z,5.07
2017-11-22T12:18:18.729Z,5.07
2017-11-22T12:20:51.940Z,5.20
2017-11-22T12:23:24.355Z,5.67
2017-11-22T12:25:51.907Z,4.63
2017-11-22T12:28:19.404Z,5.93
2017-11-22T12:30:46.994Z,4.80
2017-11-22T12:33:14.498Z,5.40
2017-11-22T12:35:42.034Z,4.40
2017-11-22T12:38:09.599Z,5.10
2017-11-22T12:40:37.109Z,4.80
2017-11-22T12:43:04.720Z,4.80
2017-11-22T12:45:32.230Z,5.30
2017-11-22T12:47:59.798Z,5.40
2017-11-22T12:50:27.311Z,4.33
2017-11-22T12:52:55.583Z,5.00
2017-11-22T12:55:23.900Z,4.90
2017-11-22T12:57:53.320Z,5.10
2017-11-22T13:00:20.866Z,4.80
2017-11-22T13:02:49.133Z,4.67
2017-11-22T13:05:16.688Z,4.53
2017-11-22T13:07:44.209Z,4.17
2017-11-22T13:10:18.041Z,3.87
2017-11-22T13:12:45.537Z,5.03
2017-11-22T13:15:13.042Z,4.37
2017-11-22T13:17:41.389Z,4.83
2017-11-22T13:20:08.889Z,4.63
2017-11-22T13:22:36.418Z,4.13
2017-11-22T13:25:04.010Z,4.70
2017-11-22T13:27:31.582Z,5.07
2017-11-22T13:29:59.089Z,4.63
2017-11-22T13:32:26.590Z,4.50
2017-11-22T13:34:54.145Z,4.73
2017-11-22T13:37:21.672Z,4.23
2017-11-22T13:39:49.226Z,4.90
2017-11-22T13:42:16.714Z,4.10
2017-11-22T13:44:44.270Z,4.73
2017-11-22T13:47:11.759Z,4.30
2017-11-22T13:49:39.312Z,5.13
2017-11-22T13:52:06.809Z,5.10
2017-11-22T13:54:34.317Z,4.70
2017-11-22T13:57:01.839Z,4.87
2017-11-22T13:59:29.337Z,3.70
2017-11-22T14:01:56.877Z,4.47
2017-11-22T14:04:24.381Z,4.87
2017-11-22T14:06:51.917Z,4.63
2017-11-22T14:09:19.468Z,5.03
2017-11-22T14:11:47.772Z,4.60
2017-11-22T14:14:15.299Z,4.90
2017-11-22T14:16:42.852Z,4.90
2017-11-22T14:19:10.370Z,5.37
2017-11-22T14:21:37.869Z,4.77
2017-11-22T14:24:05.429Z,5.73
2017-11-22T14:26:32.930Z,4.70
2017-11-22T14:29:00.505Z,5.27
2017-11-22T14:31:28.065Z,5.00
2017-11-22T14:33:55.981Z,4.60
2017-11-22T14:36:23.562Z,4.97
2017-11-22T14:38:51.194Z,5.23
2017-11-22T14:41:18.782Z,5.73
2017-11-22T14:43:46.288Z,5.10
2017-11-22T14:46:13.828Z,5.93
2017-11-22T14:48:41.521Z,5.90
2017-11-22T14:51:09.075Z,6.00
2017-11-22T14:53:36.582Z,5.40
2017-11-22T14:56:04.083Z,6.43
2017-11-22T14:58:31.677Z,5.60
2017-11-22T15:00:59.165Z,6.37
2017-11-22T15:03:26.709Z,6.47
2017-11-22T15:05:54.210Z,6.30
2017-11-22T15:08:21.848Z,5.87
2017-11-22T15:10:49.386Z,6.67
2017-11-22T15:13:16.891Z,6.80
2017-11-22T15:15:44.426Z,6.67
2017-11-22T15:18:11.990Z,7.53
2017-11-22T15:20:39.528Z,7.57
2017-11-22T15:23:07.029Z,7.30
2017-11-22T15:25:34.601Z,8.00
2017-11-22T15:28:02.888Z,7.30
2017-11-22T15:30:30.395Z,7.33
2017-11-22T15:32:57.952Z,7.63
2017-11-22T15:35:25.487Z,7.33
2017-11-22T15:37:53.057Z,7.43
2017-11-22T15:40:20.569Z,7.60
2017-11-22T15:42:48.893Z,8.03
2017-11-22T15:45:17.263Z,7.90
2017-11-22T15:47:45.586Z,7.50
2017-11-22T15:50:13.089Z,8.20
2017-11-22T15:52:40.692Z,7.67
2017-11-22T15:55:08.994Z,9.73
2017-11-22T15:57:37.266Z,9.70
2017-11-22T16:00:05.614Z,9.13
2017-11-22T16:02:33.163Z,9.27
2017-11-22T16:05:00.717Z,9.80
2017-11-22T16:07:28.272Z,8.83
2017-11-22T16:09:55.898Z,8.37
2017-11-22T16:12:23.425Z,9.60
2017-11-22T16:14:51.721Z,10.70
2017-11-22T16:17:19.985Z,9.47
2017-11-22T16:19:47.531Z,8.83
2017-11-22T16:22:15.038Z,10.37
2017-11-22T16:24:42.547Z,9.17
2017-11-22T16:27:10.109Z,9.60
2017-11-22T16:29:37.605Z,9.50
2017-11-22T16:32:05.145Z,9.03
2017-11-22T16:34:33.406Z,9.20
2017-11-22T16:37:00.945Z,10.03
2017-11-22T16:39:28.439Z,8.93
2017-11-22T16:41:55.978Z,9.20
2017-11-22T16:44:23.491Z,10.00
2017-11-22T16:46:50.999Z,9.00
2017-11-22T16:49:18.538Z,8.10
2017-11-22T16:51:46.045Z,8.70
2017-11-22T16:54:13.649Z,8.30
2017-11-22T16:56:41.232Z,9.03
2017-11-22T16:59:08.753Z,8.07
2017-11-22T17:01:37.056Z,9.47
2017-11-22T17:04:04.614Z,8.90
2017-11-22T17:06:32.916Z,8.00
2017-11-22T17:09:00.467Z,8.00
2017-11-22T17:11:28.742Z,8.50
2017-11-22T17:13:56.256Z,7.63
2017-11-22T17:16:23.862Z,7.87
2017-11-22T17:18:51.348Z,8.37
2017-11-22T17:21:18.925Z,7.53
2017-11-22T17:23:46.416Z,8.10
2017-11-22T17:26:14.727Z,7.37
2017-11-22T17:28:42.236Z,6.83
2017-11-22T17:31:09.786Z,8.17
2017-11-22T17:33:37.314Z,6.67
2017-11-22T17:36:04.819Z,6.73
2017-11-22T17:38:32.346Z,6.83
2017-11-22T17:40:59.847Z,6.40
2017-11-22T17:43:28.170Z,5.87
2017-11-22T17:45:55.661Z,6.50
2017-11-22T17:48:23.230Z,6.40
2017-11-22T17:50:50.738Z,5.80
2017-11-22T17:53:18.270Z,6.83
2017-11-22T17:55:45.776Z,6.10
2017-11-22T17:58:13.310Z,6.60
2017-11-22T18:00:40.870Z,5.93
2017-11-22T18:03:08.368Z,5.77
2017-11-22T18:05:35.941Z,5.17
2017-11-22T18:08:03.428Z,6.10
2017-11-22T18:10:31.755Z,6.03
2017-11-22T18:12:59.269Z,5.27
2017-11-22T18:15:26.827Z,5.50
2017-11-22T18:17:54.312Z,5.00
2017-11-22T18:20:21.863Z,5.37
2017-11-22T18:22:49.440Z,5.03
2017-11-22T18:25:16.955Z,5.37
2017-11-22T18:27:45.243Z,5.57
2017-11-22T18:30:13.507Z,5.03
2017-11-22T18:32:41.022Z,4.23
2017-11-22T18:35:09.278Z,4.97
2017-11-22T18:37:36.981Z,5.13
2017-11-22T18:40:05.264Z,6.00
2017-11-22T18:42:32.770Z,4.80
2017-11-22T18:45:00.323Z,5.60
2017-11-22T18:47:28.574Z,5.07
2017-11-22T18:49:56.136Z,5.30
2017-11-22T18:52:23.981Z,4.67
2017-11-22T18:54:51.539Z,4.80
2017-11-22T18:57:19.052Z,4.70
2017-11-22T18:59:47.393Z,4.23
2017-11-22T19:02:15.657Z,4.73
2017-11-22T19:04:43.150Z,4.97
2017-11-22T19:07:11.465Z,4.77
2017-11-22T19:09:38.966Z,4.80
2017-11-22T19:12:06.503Z,5.20
2017-11-22T19:14:34.003Z,4.53
2017-11-22T19:17:01.545Z,5.20
2017-11-22T19:19:29.057Z,5.10
2017-11-22T19:21:56.606Z,4.23
2017-11-22T19:24:24.132Z,4.50
2017-11-22T19:26:51.693Z,4.93
2017-11-22T19:29:25.855Z,4.40
2017-11-22T19:31:53.418Z,4.47
2017-11-22T19:34:20.943Z,4.70
2017-11-22T19:36:48.443Z,5.10
2017-11-22T19:39:16.746Z,5.40
2017-11-22T19:41:44.232Z,4.90
2017-11-22T19:44:11.762Z,5.03
2017-11-22T19:46:39.265Z,4.63
2017-11-22T19:49:06.786Z,5.57
2017-11-22T19:51:34.309Z,5.20
2017-11-22T19:54:01.853Z,5.17
2017-11-22T19:56:29.350Z,6.30
2017-11-22T19:58:56.874Z,4.60
2017-11-22T20:01:24.414Z,6.30
2017-11-22T20:03:51.920Z,6.30
2017-11-22T20:06:19.465Z,5.70
2017-11-22T20:08:46.958Z,5.30
2017-11-22T20:11:14.494Z,5.30
2017-11-22T20:13:42.000Z,5.30
2017-11-22T20:16:09.566Z,5.90
2017-11-22T20:18:37.074Z,5.40
2017-11-22T20:21:04.607Z,5.20
2017-11-22T20:23:32.093Z,6.67
2017-11-22T20:25:59.628Z,5.13
2017-11-22T20:28:27.160Z,5.70
2017-11-22T20:30:54.663Z,5.10
2017-11-22T20:33:22.225Z,5.70
2017-11-22T20:35:50.511Z,5.50
2017-11-22T20:38:18.045Z,5.67
2017-11-22T20:40:45.533Z,5.03
2017-11-22T20:43:13.115Z,4.90
2017-11-22T20:45:41.377Z,5.57
2017-11-22T20:48:09.080Z,5.00
2017-11-22T20:50:36.592Z,4.67
2017-11-22T20:53:04.598Z,5.13
2017-11-22T20:55:32.167Z,5.43
2017-11-22T20:57:59.767Z,6.10
2017-11-22T21:00:28.012Z,4.67
2017-11-22T21:02:55.693Z,5.30
2017-11-22T21:05:23.385Z,4.43
2017-11-22T21:07:50.884Z,5.50
2017-11-22T21:10:18.586Z,5.13
2017-11-22T21:12:46.115Z,5.07
2017-11-22T21:15:13.774Z,4.13
2017-11-22T21:17:47.502Z,6.00
2017-11-22T21:20:15.051Z,4.80
2017-11-22T21:22:42.541Z,4.83
2017-11-22T21:25:10.074Z,4.30
2017-11-22T21:27:37.824Z,5.30
2017-11-22T21:30:05.315Z,4.60
2017-11-22T21:32:32.865Z,5.47
2017-11-22T21:35:00.365Z,4.50
2017-11-22T21:37:27.896Z,4.30
2017-11-22T21:39:55.442Z,6.47
2017-11-22T21:42:22.972Z,4.80
2017-11-22T21:44:51.237Z,5.70
2017-11-22T21:47:18.766Z,5.03
2017-11-22T21:49:46.273Z,4.73
2017-11-22T21:52:13.828Z,4.97
2017-11-22T21:54:41.347Z,4.30
2017-11-22T21:57:09.619Z,5.40
2017-11-22T21:59:37.911Z,4.60
2017-11-22T22:02:05.423Z,4.70
2017-11-22T22:04:33.558Z,5.00
2017-11-22T22:07:01.048Z,6.13
2017-11-22T22:09:29.298Z,4.53
2017-11-22T22:11:56.814Z,4.20
2017-11-22T22:14:24.329Z,4.13
2017-11-22T22:16:51.856Z,3.77
2017-11-22T22:19:19.464Z,3.80
2017-11-22T22:21:47.621Z,4.00
2017-11-22T22:24:15.326Z,4.07
2017-11-22T22:26:43.261Z,4.00
2017-11-22T22:29:10.780Z,5.43
2017-11-22T22:31:38.275Z,3.77
2017-11-22T22:34:06.515Z,4.43
2017-11-22T22:36:34.022Z,4.93
2017-11-22T22:39:01.569Z,3.60
2017-11-22T22:41:29.069Z,5.03
2017-11-22T22:43:56.618Z,3.97
2017-11-22T22:46:24.148Z,4.17
2017-11-22T22:48:51.645Z,4.43
2017-11-22T22:51:19.177Z,3.97
2017-11-22T22:53:46.677Z,3.80
2017-11-22T22:56:14.979Z,4.17
2017-11-22T22:58:42.472Z,4.00
2017-11-22T23:01:10.083Z,3.80
2017-11-22T23:03:37.618Z,4.20
2017-11-22T23:06:05.147Z,3.87
2017-11-22T23:08:32.665Z,3.67
2017-11-22T23:11:00.221Z,3.60
2017-11-22T23:13:28.380Z,3.53
2017-11-22T23:15:56.924Z,3.37
2017-11-22T23:18:24.607Z,4.43
2017-11-22T23:20:52.117Z,3.60
2017-11-22T23:23:20.002Z,4.20
2017-11-22T23:25:48.258Z,3.97
2017-11-22T23:28:16.029Z,3.87
2017-11-22T23:30:43.554Z,3.70
2017-11-22T23:33:11.085Z,3.70
2017-11-22T23:35:38.586Z,3.97
2017-11-22T23:38:06.078Z,4.37
2017-11-22T23:40:33.598Z,4.07
2017-11-22T23:43:01.829Z,3.73
2017-11-22T23:45:29.365Z,3.70
2017-11-22T23:47:56.853Z,4.10
2017-11-22T23:50:25.160Z,4.30
2017-11-22T23:52:52.682Z,3.53
2017-11-22T23:55:20.176Z,4.00
2017-11-22T23:57:47.753Z,3.50
